Time;durP1;ratioP1;P1;durP2;ratioP2;P2;SDS_P1;SDS_P2;PMS_P1;PMS_P2;Temp;Humidity;BMP_temperature;BMP_pressure;BME280_temperature;BME280_humidity;BME280_pressure;Samples;Min_cycle;Max_cycle;Signal;HPM_P1;HPM_P2
2022/11/01 00:02:01;;;;;;;6.73;3.93;;;19.10;62.70;20.30;100337.00;;;;5010225;28;20195;-46
2022/11/01 00:04:27;;;;;;;5.90;4.20;;;19.10;62.90;20.30;100326.00;;;;5010626;28;20183;-46
2022/11/01 00:06:52;;;;;;;6.47;3.90;;;19.10;63.10;20.30;100333.00;;;;5010646;28;20549;-47
2022/11/01 00:09:18;;;;;;;5.37;4.23;;;19.10;63.00;20.30;100321.00;;;;5010966;28;20187;-47
2022/11/01 00:11:44;;;;;;;6.30;3.80;;;19.10;63.30;20.30;100326.00;;;;5011277;28;20188;-46
2022/11/01 00:14:12;;;;;;;7.33;3.90;;;19.10;63.50;20.30;100316.00;;;;5010711;28;20179;-46
2022/11/01 00:16:38;;;;;;;8.57;4.17;;;19.10;63.60;20.30;100309.00;;;;5010611;28;20176;-46
2022/11/01 00:19:04;;;;;;;7.23;4.00;;;19.00;63.70;20.30;100301.00;;;;5010623;28;20800;-46
2022/11/01 00:21:31;;;;;;;6.03;4.43;;;19.00;64.00;20.20;100291.00;;;;5009396;28;20243;-47
2022/11/01 00:23:56;;;;;;;6.37;4.33;;;19.00;64.10;20.30;100288.00;;;;5010210;28;20647;-47
2022/11/01 00:26:23;;;;;;;7.20;4.10;;;19.10;64.40;20.30;100288.00;;;;5010046;28;20175;-47
2022/11/01 00:28:49;;;;;;;6.23;3.80;;;19.00;64.40;20.30;100272.00;;;;5010219;28;20235;-45
2022/11/01 00:31:15;;;;;;;5.20;3.90;;;19.00;64.60;20.20;100262.00;;;;5010029;28;20183;-47
2022/11/01 00:33:41;;;;;;;8.30;4.13;;;19.00;64.70;20.20;100280.00;;;;5010582;28;20167;-47
2022/11/01 00:36:07;;;;;;;5.50;4.10;;;19.00;64.80;20.20;100261.00;;;;5010807;28;20191;-45
2022/11/01 00:38:34;;;;;;;9.33;4.57;;;19.00;64.80;20.20;100260.00;;;;5010209;28;20648;-46
2022/11/01 00:41:01;;;;;;;9.77;4.60;;;19.00;65.00;20.20;100254.00;;;;5010312;28;20177;-46
2022/11/01 00:43:27;;;;;;;8.10;4.50;;;19.00;65.10;20.20;100256.00;;;;5010072;28;20207;-46
2022/11/01 00:45:53;;;;;;;5.47;3.97;;;19.00;66.00;20.20;100254.00;;;;4992416;28;20738;-45
2022/11/01 00:48:18;;;;;;;7.50;4.40;;;19.00;65.20;20.20;100260.00;;;;5009834;28;20199;-46
2022/11/01 00:50:44;;;;;;;7.27;4.30;;;19.00;65.30;20.20;100272.00;;;;4992279;28;20184;-46
2022/11/01 00:53:10;;;;;;;7.63;4.20;;;19.00;65.30;20.20;100265.00;;;;5009391;28;20204;-46
2022/11/01 00:55:36;;;;;;;6.37;4.30;;;19.00;65.20;20.20;100278.00;;;;5009758;28;20191;-47
2022/11/01 00:58:02;;;;;;;7.37;4.20;;;19.00;65.20;20.20;100279.00;;;;5011072;28;20173;-46
2022/11/01 01:00:28;;;;;;;7.20;3.70;;;19.00;65.30;20.20;100280.00;;;;5010072;28;20176;-46
2022/11/01 01:02:53;;;;;;;6.47;4.23;;;19.00;65.30;20.20;100281.00;;;;5009318;28;20310;-46
2022/11/01 01:05:19;;;;;;;7.83;4.53;;;19.00;65.40;20.20;100279.00;;;;5009425;28;20180;-48
2022/11/01 01:07:45;;;;;;;4.63;3.70;;;19.00;65.40;20.20;100284.00;;;;5009130;28;20191;-47
2022/11/01 01:10:11;;;;;;;5.00;3.93;;;19.00;65.60;20.20;100301.00;;;;5009312;28;20674;-46
2022/11/01 01:12:36;;;;;;;8.60;4.30;;;19.00;65.60;20.20;100290.00;;;;5009096;28;20200;-46
2022/11/01 01:15:02;;;;;;;6.33;3.90;;;19.00;65.60;20.20;100294.00;;;;5009216;28;20266;-48
2022/11/01 01:17:28;;;;;;;6.60;4.20;;;19.00;65.60;20.20;100288.00;;;;5009722;28;20316;-47
2022/11/01 01:19:54;;;;;;;5.83;4.20;;;19.00;65.60;20.20;100273.00;;;;5009756;28;20913;-46
2022/11/01 01:22:19;;;;;;;5.90;4.17;;;19.00;65.60;20.20;100268.00;;;;5009227;28;20292;-46
2022/11/01 01:24:46;;;;;;;5.83;3.77;;;19.00;65.80;20.10;100266.00;;;;5009509;28;20180;-46
2022/11/01 01:27:15;;;;;;;8.17;4.20;;;18.90;65.70;20.10;100266.00;;;;5009372;28;20525;-46
2022/11/01 01:29:43;;;;;;;6.90;4.50;;;18.90;65.70;20.10;100265.00;;;;5008820;28;20231;-46
2022/11/01 01:32:14;;;;;;;8.37;4.00;;;19.00;65.90;20.10;100251.00;;;;4991612;28;20238;-46
2022/11/01 01:34:40;;;;;;;8.97;4.50;;;19.00;66.00;20.10;100255.00;;;;4992036;28;20152;-46
2022/11/01 01:37:07;;;;;;;7.83;4.37;;;18.90;65.90;20.00;100261.00;;;;4998285;28;20861;-47
2022/11/01 01:39:33;;;;;;;5.47;3.80;;;19.00;66.10;20.10;100257.00;;;;4965849;28;20627;-46
2022/11/01 01:42:10;;;;;;;6.50;4.07;;;18.90;66.00;20.10;100273.00;;;;5008168;28;20625;-50
2022/11/01 01:44:45;;;;;;;6.60;4.33;;;18.90;66.10;20.10;100253.00;;;;4999714;28;20225;-47
2022/11/01 01:47:16;;;;;;;7.27;4.20;;;18.90;66.10;20.10;100258.00;;;;5028338;28;20247;-47
2022/11/01 01:49:42;;;;;;;6.57;4.40;;;18.90;66.20;20.10;100249.00;;;;5028405;28;20191;-47
2022/11/01 01:52:08;;;;;;;5.33;4.10;;;18.90;66.20;20.10;100246.00;;;;5010291;28;20674;-48
2022/11/01 01:54:33;;;;;;;5.60;3.93;;;18.90;66.20;20.10;100253.00;;;;5011307;28;20188;-46
2022/11/01 01:56:59;;;;;;;5.40;3.60;;;18.90;66.30;20.10;100252.00;;;;5010840;28;20171;-46
2022/11/01 01:59:25;;;;;;;6.33;4.40;;;18.90;66.40;20.10;100256.00;;;;5028148;28;20186;-47
2022/11/01 02:01:50;;;;;;;6.80;4.20;;;18.90;66.30;20.10;100244.00;;;;5009960;28;20492;-47
2022/11/01 02:04:38;;;;;;;6.73;4.00;;;18.90;66.40;20.10;100240.00;;;;5010590;28;20695;-46
2022/11/01 02:07:03;;;;;;;7.43;3.97;;;18.90;66.40;20.10;100235.00;;;;5010671;28;20182;-46
2022/11/01 02:09:29;;;;;;;6.43;4.00;;;18.90;66.40;20.10;100247.00;;;;5028114;28;20203;-46
2022/11/01 02:11:56;;;;;;;4.37;3.60;;;18.80;66.40;20.10;100246.00;;;;5010358;28;20203;-47
2022/11/01 02:14:22;;;;;;;8.00;4.27;;;18.90;66.50;20.10;100242.00;;;;5027911;28;20253;-46
2022/11/01 02:16:55;;;;;;;6.07;3.87;;;18.90;66.50;20.10;100254.00;;;;5010366;28;20262;-48
2022/11/01 02:19:53;;;;;;;5.47;3.87;;;18.90;66.60;20.10;100258.00;;;;5010044;28;20159;-47
2022/11/01 02:23:10;;;;;;;6.73;4.33;;;18.90;66.70;20.10;100248.00;;;;4997348;28;20205;-47
2022/11/01 02:26:26;;;;;;;6.97;3.80;;;18.80;66.60;20.00;100248.00;;;;5010223;28;20177;-48
2022/11/01 02:29:18;;;;;;;6.80;4.23;;;18.80;66.80;20.00;100244.00;;;;4966423;28;20312;-47
2022/11/01 02:31:57;;;;;;;8.23;3.87;;;18.80;66.90;20.00;100248.00;;;;4994337;28;20235;-46
2022/11/01 02:34:33;;;;;;;5.80;3.67;;;18.80;67.20;20.00;100242.00;;;;5010695;28;20174;-47
2022/11/01 02:37:14;;;;;;;5.67;3.90;;;18.80;67.30;20.00;100244.00;;;;5010388;28;20570;-47
2022/11/01 02:39:46;;;;;;;8.17;4.37;;;18.80;67.40;19.90;100238.00;;;;5010191;28;20532;-47
2022/11/01 02:42:14;;;;;;;6.47;4.10;;;18.80;67.40;19.90;100257.00;;;;5010047;28;20542;-46
2022/11/01 02:44:48;;;;;;;6.40;3.77;;;18.80;67.60;19.90;100242.00;;;;5009387;28;20175;-47
2022/11/01 02:47:14;;;;;;;5.50;4.20;;;18.80;67.50;20.00;100241.00;;;;5010673;28;20263;-46
2022/11/01 02:49:43;;;;;;;4.83;3.63;;;18.80;67.50;20.00;100244.00;;;;5010197;28;20283;-46
2022/11/01 02:52:11;;;;;;;7.63;3.80;;;18.80;67.50;20.00;100227.00;;;;4993828;28;20261;-47
2022/11/01 02:54:47;;;;;;;4.73;3.97;;;18.80;67.60;20.00;100256.00;;;;5009775;28;20269;-47
2022/11/01 02:57:31;;;;;;;6.50;3.90;;;18.80;67.70;20.00;100251.00;;;;5027593;28;20174;-47
2022/11/01 03:00:07;;;;;;;6.57;4.07;;;18.80;67.70;19.90;100237.00;;;;5009802;28;20163;-46
2022/11/01 03:02:40;;;;;;;6.23;3.70;;;18.80;67.70;19.90;100242.00;;;;5027632;28;20213;-47
2022/11/01 03:05:28;;;;;;;4.73;3.47;;;18.80;67.90;20.00;100242.00;;;;4993400;28;20186;-46
2022/11/01 03:07:56;;;;;;;7.37;3.90;;;18.80;68.00;19.90;100233.00;;;;5010792;28;20199;-45
2022/11/01 03:10:25;;;;;;;5.10;3.50;;;18.80;68.10;19.90;100226.00;;;;5009601;28;20175;-47
2022/11/01 03:13:07;;;;;;;6.03;3.70;;;18.80;68.00;19.90;100224.00;;;;5009723;28;20195;-45
2022/11/01 03:15:38;;;;;;;5.90;3.77;;;18.80;68.00;19.90;100240.00;;;;5010920;28;20569;-47
2022/11/01 03:18:11;;;;;;;5.23;3.67;;;18.80;68.10;19.90;100248.00;;;;5027729;28;20159;-48
2022/11/01 03:20:49;;;;;;;7.07;3.90;;;18.80;68.10;19.90;100258.00;;;;5009645;28;20183;-47
2022/11/01 03:23:34;;;;;;;5.00;3.70;;;18.80;68.10;19.90;100234.00;;;;5009864;28;20218;-47
2022/11/01 03:26:00;;;;;;;6.33;3.93;;;18.80;68.10;19.90;100244.00;;;;4993509;28;20171;-47
2022/11/01 03:28:35;;;;;;;5.57;3.50;;;18.80;68.30;19.90;100254.00;;;;4976873;28;20215;-46
2022/11/01 03:31:16;;;;;;;5.37;3.67;;;18.70;68.20;19.90;100268.00;;;;4970702;28;20156;-46
2022/11/01 03:33:46;;;;;;;6.23;3.80;;;18.80;68.20;19.90;100253.00;;;;4971394;28;20176;-48
2022/11/01 03:36:14;;;;;;;5.10;3.63;;;18.80;68.30;19.90;100278.00;;;;4970756;28;20176;-47
2022/11/01 03:38:42;;;;;;;6.83;3.53;;;18.80;68.50;19.90;100280.00;;;;4971224;28;20665;-47
2022/11/01 03:41:11;;;;;;;4.87;3.50;;;18.70;68.40;19.90;100287.00;;;;4970336;28;20184;-47
2022/11/01 03:43:37;;;;;;;5.73;3.30;;;18.80;68.60;19.90;100284.00;;;;4954396;28;20181;-48
2022/11/01 03:46:03;;;;;;;6.27;3.87;;;18.80;68.60;19.90;100289.00;;;;4970300;28;20259;-47
2022/11/01 03:48:29;;;;;;;5.13;4.00;;;18.80;68.60;19.90;100279.00;;;;4987954;28;20200;-47
2022/11/01 03:50:55;;;;;;;5.87;3.70;;;18.70;68.70;19.90;100285.00;;;;4987631;28;20183;-47
2022/11/01 03:53:21;;;;;;;5.67;3.90;;;18.70;68.80;19.90;100278.00;;;;4987373;28;20696;-47
2022/11/01 03:55:47;;;;;;;5.10;3.40;;;18.70;68.80;19.90;100289.00;;;;4989118;28;20558;-47
2022/11/01 03:58:13;;;;;;;4.53;3.77;;;18.70;68.80;19.90;100288.00;;;;4991165;28;20176;-47
2022/11/01 04:00:44;;;;;;;7.37;3.93;;;18.70;68.90;19.90;100319.00;;;;4991150;28;20172;-47
2022/11/01 04:03:10;;;;;;;6.17;3.70;;;18.70;69.00;19.90;100312.00;;;;4990846;28;20856;-47
2022/11/01 04:05:37;;;;;;;5.53;3.50;;;18.70;69.20;19.90;100322.00;;;;4991011;28;20181;-47
2022/11/01 04:08:03;;;;;;;6.37;3.50;;;18.70;69.50;19.90;100314.00;;;;4990981;28;20185;-47
2022/11/01 04:10:29;;;;;;;3.97;3.47;;;18.70;69.60;19.90;100315.00;;;;4973684;28;20215;-47
2022/11/01 04:12:55;;;;;;;5.40;3.60;;;18.70;69.50;19.90;100308.00;;;;4990322;28;20220;-47
2022/11/01 04:21:21;;;;;;;10.67;3.70;;;18.80;69.40;19.80;100309.00;;;;4976900;28;20208;-47
2022/11/01 04:23:47;;;;;;;7.70;3.50;;;18.80;69.30;19.80;100333.00;;;;4972353;28;20179;-47
2022/11/01 04:26:15;;;;;;;6.37;3.53;;;18.80;69.20;19.80;100331.00;;;;4990980;28;20263;-47
2022/11/01 04:28:43;;;;;;;5.40;3.60;;;18.80;69.20;19.80;100326.00;;;;4990383;28;20232;-47
2022/11/01 04:31:09;;;;;;;5.43;3.50;;;18.80;69.10;19.80;100340.00;;;;4973297;28;20180;-48
2022/11/01 04:33:35;;;;;;;6.17;3.50;;;18.80;69.50;19.80;100345.00;;;;4990521;28;20200;-47
2022/11/01 04:36:05;;;;;;;8.80;3.43;;;18.80;69.00;19.80;100347.00;;;;4990741;28;20518;-47
2022/11/01 04:38:31;;;;;;;9.33;3.70;;;18.80;69.00;19.80;100355.00;;;;4990469;28;20180;-48
2022/11/01 04:40:56;;;;;;;5.10;3.20;;;18.80;69.00;19.90;100348.00;;;;4990395;28;20186;-48
2022/11/01 04:43:22;;;;;;;4.43;3.30;;;18.80;69.00;19.90;100354.00;;;;4989905;28;20203;-47
2022/11/01 04:45:55;;;;;;;6.17;3.30;;;18.80;68.90;19.90;100352.00;;;;4990668;28;20365;-47
2022/11/01 04:48:21;;;;;;;4.03;3.10;;;18.70;68.90;19.90;100367.00;;;;4991573;28;20226;-48
2022/11/01 04:50:46;;;;;;;4.50;3.50;;;18.80;69.00;19.90;100360.00;;;;4991422;28;20649;-47
2022/11/01 04:53:12;;;;;;;4.90;3.50;;;18.80;69.20;19.90;100350.00;;;;4991303;28;20193;-47
2022/11/01 04:55:38;;;;;;;4.77;3.40;;;18.80;69.20;19.90;100362.00;;;;4991352;28;20188;-48
2022/11/01 04:58:05;;;;;;;4.47;3.07;;;18.80;69.20;19.90;100363.00;;;;4973755;28;20234;-48
2022/11/01 05:00:32;;;;;;;6.17;3.60;;;18.70;69.20;19.90;100361.00;;;;4991309;28;20180;-47
2022/11/01 05:03:06;;;;;;;6.17;3.70;;;18.70;69.80;19.90;100371.00;;;;4992267;28;20204;-47
2022/11/01 05:05:31;;;;;;;5.90;3.50;;;18.70;70.50;19.80;100371.00;;;;4992234;28;20180;-47
2022/11/01 05:08:01;;;;;;;3.50;3.20;;;18.60;70.40;19.80;100382.00;;;;4994711;28;20264;-48
2022/11/01 05:10:27;;;;;;;5.63;3.40;;;18.60;70.50;19.80;100370.00;;;;5011045;28;20187;-48
2022/11/01 05:12:53;;;;;;;5.60;3.37;;;18.60;70.70;19.80;100369.00;;;;5010610;28;20196;-47
2022/11/01 05:15:19;;;;;;;6.90;3.30;;;18.60;70.90;19.80;100376.00;;;;5011136;28;20198;-47
2022/11/01 05:17:44;;;;;;;5.30;3.30;;;18.60;72.00;19.80;100388.00;;;;5010737;28;20183;-48
2022/11/01 05:20:10;;;;;;;5.57;3.20;;;18.60;71.30;19.80;100375.00;;;;5007290;28;20191;-47
2022/11/01 05:22:36;;;;;;;5.30;3.43;;;18.60;71.30;19.80;100376.00;;;;5010074;28;20211;-47
2022/11/01 05:25:02;;;;;;;5.13;3.37;;;18.60;71.50;19.80;100382.00;;;;5010143;28;20710;-48
2022/11/01 05:27:28;;;;;;;5.83;3.53;;;18.50;71.40;19.80;100382.00;;;;5010017;28;20636;-48
2022/11/01 05:29:53;;;;;;;6.63;3.50;;;18.50;71.50;19.80;100397.00;;;;5009503;28;20199;-48
2022/11/01 05:32:19;;;;;;;4.53;3.43;;;18.60;71.60;19.80;100405.00;;;;5009824;28;20223;-47
2022/11/01 05:34:45;;;;;;;5.60;3.50;;;18.60;71.70;19.70;100397.00;;;;5009865;28;20582;-48
2022/11/01 05:37:11;;;;;;;6.27;3.60;;;18.60;72.00;19.70;100408.00;;;;5009065;28;20184;-47
2022/11/01 05:39:37;;;;;;;5.80;3.57;;;18.50;71.80;19.70;100408.00;;;;5008466;28;20525;-47
2022/11/01 05:42:03;;;;;;;5.07;3.33;;;18.50;71.90;19.70;100408.00;;;;5008821;28;20195;-47
2022/11/01 05:44:28;;;;;;;5.27;3.50;;;18.50;72.00;19.70;100407.00;;;;5008916;28;20183;-47
2022/11/01 05:46:54;;;;;;;5.73;3.60;;;18.50;72.00;19.70;100344.00;;;;5008926;28;20175;-47
2022/11/01 05:49:21;;;;;;;5.30;3.33;;;18.50;72.10;19.70;100420.00;;;;5009325;28;20219;-47
2022/11/01 05:51:47;;;;;;;5.33;3.77;;;18.60;72.20;19.70;100431.00;;;;5009152;28;20191;-47
2022/11/01 05:54:12;;;;;;;5.47;3.50;;;18.60;72.10;19.70;100440.00;;;;5009139;28;20553;-47
2022/11/01 05:56:38;;;;;;;7.00;3.90;;;18.50;72.10;19.70;100437.00;;;;5009663;28;20732;-47
2022/11/01 05:59:04;;;;;;;5.47;3.60;;;18.50;72.10;19.70;100447.00;;;;5009671;28;20175;-47
2022/11/01 06:01:30;;;;;;;5.67;3.47;;;18.60;72.30;19.70;100447.00;;;;5009100;28;20199;-48
2022/11/01 06:04:00;;;;;;;4.67;3.27;;;18.50;72.10;19.70;100449.00;;;;5008996;28;20207;-47
2022/11/01 06:06:28;;;;;;;5.57;3.40;;;18.60;72.30;19.70;100450.00;;;;5009888;28;20255;-48
2022/11/01 06:08:56;;;;;;;5.07;3.63;;;18.50;72.40;19.70;100461.00;;;;5009749;28;20206;-47
2022/11/01 06:11:22;;;;;;;5.93;4.00;;;18.60;72.50;19.70;100462.00;;;;5008950;28;20543;-47
2022/11/01 06:13:55;;;;;;;3.63;3.20;;;18.50;72.60;19.60;100473.00;;;;5008959;28;20548;-47
2022/11/01 06:16:21;;;;;;;5.37;3.70;;;18.50;72.70;19.60;100464.00;;;;4992561;28;20763;-48
2022/11/01 06:18:46;;;;;;;5.43;3.43;;;18.50;72.70;19.60;100478.00;;;;5008526;28;20230;-46
2022/11/01 06:21:12;;;;;;;5.17;3.53;;;18.50;72.80;19.60;100483.00;;;;5008927;28;20172;-47
2022/11/01 06:23:38;;;;;;;6.20;3.90;;;18.50;72.80;19.60;100489.00;;;;4989860;28;20183;-48
2022/11/01 06:26:04;;;;;;;5.97;3.40;;;18.50;72.80;19.60;100503.00;;;;5008404;28;20250;-48
2022/11/01 06:28:30;;;;;;;4.53;3.50;;;18.50;72.80;19.60;100490.00;;;;4991110;28;20203;-47
2022/11/01 06:31:01;;;;;;;6.63;3.80;;;18.50;72.80;19.60;100497.00;;;;5008784;28;20182;-48
2022/11/01 06:33:26;;;;;;;5.23;3.50;;;18.50;72.90;19.60;100509.00;;;;5008585;28;20230;-47
2022/11/01 06:35:52;;;;;;;5.47;3.70;;;18.50;72.90;19.50;100517.00;;;;5008514;28;20203;-48
2022/11/01 06:38:18;;;;;;;4.37;3.10;;;18.50;72.80;19.60;100524.00;;;;5008433;28;20220;-47
2022/11/01 06:40:45;;;;;;;5.03;3.60;;;18.50;72.80;19.60;100533.00;;;;5008677;28;20203;-47
2022/11/01 06:43:11;;;;;;;4.63;3.40;;;18.40;72.60;19.60;100535.00;;;;5008341;28;20227;-47
2022/11/01 06:45:37;;;;;;;5.07;3.20;;;18.50;72.40;19.60;100542.00;;;;5008413;28;20214;-47
2022/11/01 06:48:03;;;;;;;3.83;3.20;;;18.40;72.10;19.50;100561.00;;;;5008699;28;20598;-49
2022/11/01 06:50:28;;;;;;;4.60;3.00;;;18.50;71.40;19.50;100560.00;;;;5008515;28;20846;-48
2022/11/01 06:53:00;;;;;;;6.20;3.00;;;18.40;70.50;19.50;100551.00;;;;5008106;28;20270;-48
2022/11/01 06:55:26;;;;;;;5.07;2.83;;;18.50;70.50;19.60;100552.00;;;;5008515;28;20188;-47
2022/11/01 06:57:57;;;;;;;5.03;2.83;;;18.50;70.40;19.60;100569.00;;;;4991564;28;20690;-47
2022/11/01 07:00:23;;;;;;;7.40;2.93;;;18.50;70.40;19.60;100578.00;;;;5009144;28;20171;-48
2022/11/01 07:02:55;;;;;;;3.77;2.67;;;18.50;70.30;19.60;100592.00;;;;5008956;28;20705;-47
2022/11/01 07:05:21;;;;;;;6.10;2.90;;;18.60;70.40;19.60;100592.00;;;;4991868;28;20171;-47
2022/11/01 07:07:47;;;;;;;3.73;2.90;;;18.60;70.40;19.60;100604.00;;;;5008819;28;20176;-47
2022/11/01 07:10:13;;;;;;;4.07;3.30;;;18.60;70.30;19.60;100614.00;;;;5008814;28;20706;-47
2022/11/01 07:12:38;;;;;;;5.57;3.03;;;18.60;70.30;19.60;100622.00;;;;5008443;28;20202;-47
2022/11/01 07:15:04;;;;;;;3.77;2.50;;;18.50;70.20;19.60;100633.00;;;;5008243;28;20179;-47
2022/11/01 07:17:30;;;;;;;5.13;2.83;;;18.60;70.30;19.60;100639.00;;;;5011302;28;20176;-47
2022/11/01 07:19:56;;;;;;;3.57;2.80;;;18.50;70.10;19.60;100649.00;;;;5012231;28;20229;-48
2022/11/01 07:22:21;;;;;;;2.90;2.70;;;18.60;70.10;19.60;100652.00;;;;5009534;28;20820;-47
2022/11/01 07:24:47;;;;;;;3.30;2.70;;;18.60;70.10;19.60;100655.00;;;;5008444;28;20188;-48
2022/11/01 07:27:13;;;;;;;3.57;2.70;;;18.60;70.10;19.60;100658.00;;;;5008601;28;20183;-48
2022/11/01 07:29:40;;;;;;;4.13;2.90;;;18.50;70.00;19.60;100670.00;;;;5009618;28;20231;-47
2022/11/01 07:32:06;;;;;;;3.27;2.93;;;18.60;70.00;19.60;100692.00;;;;5012114;28;20198;-47
2022/11/01 07:34:31;;;;;;;3.27;2.73;;;18.60;70.00;19.60;100675.00;;;;5011879;28;20251;-47
2022/11/01 07:36:57;;;;;;;3.37;2.60;;;18.60;70.00;19.60;100683.00;;;;5012248;28;20183;-47
2022/11/01 07:39:23;;;;;;;4.67;2.60;;;18.60;69.90;19.60;100686.00;;;;5012102;28;20172;-47
2022/11/01 07:41:51;;;;;;;3.73;2.80;;;18.60;69.90;19.60;100698.00;;;;5011729;28;20211;-47
2022/11/01 07:44:16;;;;;;;4.10;2.80;;;18.60;69.90;19.60;100703.00;;;;5012857;28;20186;-48
2022/11/01 07:46:42;;;;;;;4.40;2.70;;;18.60;69.80;19.60;100710.00;;;;5013235;28;20178;-48
2022/11/01 07:49:08;;;;;;;2.80;2.50;;;18.60;69.80;19.60;100712.00;;;;5012721;28;20207;-48
2022/11/01 07:51:34;;;;;;;3.20;2.50;;;18.60;69.80;19.60;100706.00;;;;5012174;28;20202;-48
2022/11/01 07:54:00;;;;;;;3.43;2.40;;;18.60;69.70;19.60;100718.00;;;;5011797;28;20203;-47
2022/11/01 07:56:25;;;;;;;3.57;2.40;;;18.60;69.60;19.60;100727.00;;;;4994633;28;20179;-47
2022/11/01 07:58:51;;;;;;;2.93;2.50;;;18.60;69.60;19.60;100726.00;;;;5011766;28;20176;-47
2022/11/01 08:01:17;;;;;;;3.07;2.50;;;18.60;69.70;19.60;100729.00;;;;5012012;28;20183;-48
2022/11/01 08:03:43;;;;;;;3.00;2.30;;;18.60;69.70;19.60;100736.00;;;;5011470;28;20176;-47
2022/11/01 08:06:09;;;;;;;3.47;2.37;;;18.60;69.70;19.60;100739.00;;;;5011715;28;20234;-47
2022/11/01 08:08:35;;;;;;;3.23;2.67;;;18.60;69.60;19.60;100735.00;;;;5011862;28;20281;-47
2022/11/01 08:11:01;;;;;;;4.20;2.57;;;18.60;69.60;19.60;100753.00;;;;5011621;28;20624;-46
2022/11/01 08:13:27;;;;;;;3.10;2.50;;;18.60;69.60;19.60;100749.00;;;;5011434;28;20223;-48
2022/11/01 08:15:53;;;;;;;3.93;2.40;;;18.60;69.50;19.60;100749.00;;;;5010831;28;20785;-48
2022/11/01 08:18:21;;;;;;;2.83;2.43;;;18.60;69.60;19.60;100759.00;;;;5011816;28;20210;-47
2022/11/01 08:20:47;;;;;;;4.37;2.77;;;18.60;69.60;19.70;100763.00;;;;4994372;28;20234;-48
2022/11/01 08:23:13;;;;;;;3.63;2.40;;;18.60;69.50;19.70;100771.00;;;;5011526;28;20279;-46
2022/11/01 08:25:39;;;;;;;5.20;2.33;;;18.60;69.50;19.70;100766.00;;;;4993608;28;20268;-48
2022/11/01 08:28:07;;;;;;;3.80;2.33;;;18.60;69.70;19.70;100759.00;;;;5011044;28;20195;-47
2022/11/01 08:30:33;;;;;;;4.80;2.70;;;18.60;69.70;19.70;100763.00;;;;5011357;28;20160;-47
2022/11/01 08:33:02;;;;;;;3.63;2.43;;;18.70;69.70;19.70;100758.00;;;;4993552;28;20279;-48
2022/11/01 08:35:28;;;;;;;3.97;2.53;;;18.70;69.80;19.70;100759.00;;;;5010776;28;20187;-46
2022/11/01 08:37:54;;;;;;;4.30;2.50;;;18.70;69.80;19.70;100771.00;;;;5010818;28;20176;-47
2022/11/01 08:40:20;;;;;;;5.03;2.60;;;18.60;69.90;19.70;100781.00;;;;5010558;28;20196;-48
2022/11/01 08:42:46;;;;;;;4.03;2.40;;;18.60;69.90;19.70;100780.00;;;;5009998;28;20215;-47
2022/11/01 08:45:12;;;;;;;3.73;2.40;;;18.60;69.90;19.70;100780.00;;;;5010396;28;20183;-49
2022/11/01 08:47:39;;;;;;;3.37;2.37;;;18.60;69.90;19.70;100798.00;;;;5010518;28;20176;-47
2022/11/01 08:50:06;;;;;;;4.10;2.50;;;18.60;69.90;19.70;100801.00;;;;5010739;28;20203;-48
2022/11/01 08:52:32;;;;;;;5.83;2.40;;;18.60;69.90;19.70;100789.00;;;;5010106;28;20606;-47
2022/11/01 08:54:57;;;;;;;2.40;2.20;;;18.60;69.80;19.70;100794.00;;;;5010396;28;20192;-50
2022/11/01 08:57:23;;;;;;;2.53;2.30;;;18.60;70.60;19.70;100808.00;;;;5010819;28;20175;-47
2022/11/01 08:59:49;;;;;;;7.37;2.63;;;18.60;69.80;19.70;100802.00;;;;5010580;28;20175;-48
2022/11/01 09:02:15;;;;;;;4.00;2.40;;;18.60;69.70;19.70;100804.00;;;;5010060;28;20261;-47
2022/11/01 09:04:41;;;;;;;4.37;2.50;;;18.60;69.70;19.70;100806.00;;;;5010003;28;20175;-47
2022/11/01 09:07:07;;;;;;;2.30;2.10;;;18.60;69.70;19.70;100818.00;;;;5010261;28;20188;-48
2022/11/01 09:09:32;;;;;;;2.47;2.27;;;18.60;69.70;19.70;100806.00;;;;5010124;28;20203;-48
2022/11/01 09:11:58;;;;;;;2.77;2.30;;;18.70;69.80;19.70;100805.00;;;;4992944;28;20282;-47
2022/11/01 09:14:25;;;;;;;5.00;2.40;;;18.70;69.80;19.70;100812.00;;;;5010407;28;20175;-47
2022/11/01 09:16:51;;;;;;;6.70;2.20;;;18.60;69.60;19.70;100815.00;;;;5010388;28;20180;-46
2022/11/01 09:19:17;;;;;;;2.87;2.40;;;18.60;70.00;19.70;100828.00;;;;5010269;28;20659;-47
2022/11/01 09:21:43;;;;;;;4.17;2.20;;;18.60;69.80;19.70;100822.00;;;;5009929;28;20206;-47
2022/11/01 09:24:13;;;;;;;3.07;2.40;;;18.70;69.90;19.80;100824.00;;;;4991545;28;20179;-46
2022/11/01 09:26:39;;;;;;;4.07;2.30;;;18.70;70.20;19.80;100832.00;;;;5001825;28;20194;-48
2022/11/01 09:29:04;;;;;;;5.73;2.50;;;18.70;70.00;19.80;100828.00;;;;5009876;28;20223;-48
2022/11/01 09:31:32;;;;;;;3.27;2.40;;;18.70;70.10;19.80;100823.00;;;;5009833;28;20657;-47
2022/11/01 09:33:58;;;;;;;5.63;2.40;;;18.80;70.30;19.80;100836.00;;;;5007194;28;20182;-49
2022/11/01 09:36:25;;;;;;;3.00;2.30;;;18.80;70.20;19.80;100844.00;;;;5009456;28;20191;-48
2022/11/01 09:38:51;;;;;;;7.77;2.50;;;18.80;70.10;19.80;100832.00;;;;5009366;28;20176;-48
2022/11/01 09:41:41;;;;;;;6.70;2.73;;;18.80;70.20;19.80;100820.00;;;;5008858;28;20164;-47
2022/11/01 09:44:07;;;;;;;7.60;2.70;;;18.80;70.10;19.80;100823.00;;;;4993647;28;20168;-49
2022/11/01 09:46:42;;;;;;;4.93;2.30;;;18.80;70.20;19.80;100817.00;;;;5008210;28;20183;-48
2022/11/01 09:49:09;;;;;;;5.70;2.30;;;18.80;70.20;19.80;100813.00;;;;4991339;28;20238;-48
2022/11/01 09:51:36;;;;;;;5.43;2.40;;;18.80;70.10;19.80;100816.00;;;;4990543;28;20219;-48
2022/11/01 09:54:03;;;;;;;5.90;2.80;;;18.80;70.20;19.80;100814.00;;;;5025675;28;20222;-49
2022/11/01 09:56:49;;;;;;;5.10;2.30;;;18.80;70.70;19.80;100807.00;;;;5010916;28;20652;-50
2022/11/01 09:59:31;;;;;;;5.50;2.40;;;18.90;70.90;19.80;100815.00;;;;4994508;28;20164;-47
2022/11/01 10:02:36;;;;;;;6.30;2.50;;;18.80;70.70;19.80;100825.00;;;;4993701;28;20203;-48
2022/11/01 10:05:58;;;;;;;4.27;2.53;;;18.90;71.30;19.80;100830.00;;;;4996423;28;20175;-47
2022/11/01 10:09:00;;;;;;;6.10;2.53;;;18.80;71.10;19.80;100838.00;;;;5009256;28;20231;-50
2022/11/01 10:12:21;;;;;;;4.63;2.37;;;18.80;71.00;19.80;100848.00;;;;4991272;28;20247;-49
2022/11/01 10:14:59;;;;;;;6.53;2.37;;;18.90;70.90;19.80;100824.00;;;;4978311;28;20250;-48
2022/11/01 10:17:52;;;;;;;3.77;2.03;;;18.90;70.90;19.80;100853.00;;;;4992954;28;20155;-47
2022/11/01 10:20:24;;;;;;;4.20;2.37;;;18.90;70.70;19.80;100848.00;;;;5010431;28;20172;-48
2022/11/01 10:22:50;;;;;;;3.70;2.40;;;18.90;70.70;19.80;100853.00;;;;4991777;28;20342;-47
2022/11/01 10:25:24;;;;;;;3.93;2.20;;;18.90;70.50;19.90;100850.00;;;;5009408;28;20251;-50
2022/11/01 10:28:28;;;;;;;3.63;2.40;;;18.90;70.40;19.90;100845.00;;;;4993029;28;20605;-48
2022/11/01 10:31:01;;;;;;;4.30;2.40;;;18.90;70.30;19.90;100839.00;;;;4948178;29;20276;-48
2022/11/01 10:33:34;;;;;;;2.73;2.33;;;18.90;70.30;19.90;100826.00;;;;4999615;28;20269;-48
2022/11/01 10:36:03;;;;;;;2.93;2.20;;;18.90;70.20;19.90;100835.00;;;;4991303;28;20152;-47
2022/11/01 10:38:45;;;;;;;4.00;2.30;;;18.90;70.10;19.90;100855.00;;;;4992018;28;20202;-49
2022/11/01 10:41:28;;;;;;;2.90;2.00;;;18.90;70.00;19.90;100853.00;;;;4924290;28;20179;-47
2022/11/01 10:44:01;;;;;;;3.90;2.20;;;19.00;70.10;19.90;100852.00;;;;5006857;28;20175;-47
2022/11/01 10:46:32;;;;;;;2.67;2.23;;;19.00;70.00;20.00;100851.00;;;;4990717;28;20182;-49
2022/11/01 10:49:02;;;;;;;2.30;2.10;;;19.00;69.90;20.00;100845.00;;;;4991457;28;20287;-49
2022/11/01 10:51:28;;;;;;;3.20;2.10;;;19.00;69.90;20.00;100839.00;;;;4974902;28;20644;-49
2022/11/01 10:53:58;;;;;;;3.10;2.33;;;19.00;69.80;20.00;100843.00;;;;4974513;28;20216;-49
2022/11/01 10:56:32;;;;;;;2.67;1.93;;;19.00;69.80;20.00;100853.00;;;;4974625;28;20163;-49
2022/11/01 10:59:04;;;;;;;2.17;1.93;;;19.00;69.70;20.00;100838.00;;;;4971254;28;20638;-47
2022/11/01 11:01:41;;;;;;;5.00;2.40;;;19.10;69.80;20.00;100837.00;;;;4986365;28;20542;-49
2022/11/01 11:04:09;;;;;;;4.13;2.17;;;19.00;69.70;20.00;100853.00;;;;4987885;28;20412;-50